Time;durP1;ratioP1;P1;durP2;ratioP2;P2;SDS_P1;SDS_P2;PMS_P1;PMS_P2;Temp;Humidity;BMP_temperature;BMP_pressure;BME280_temperature;BME280_humidity;BME280_pressure;Samples;Min_cycle;Max_cycle;Signal;HPM_P1;HPM_P2
2022/11/02 00:00:38;;;;;;;9.05;2.10;;;14.50;99.90;;;;;;4995787;28;95541;-77
2022/11/02 00:03:05;;;;;;;7.93;2.03;;;14.50;99.90;;;;;;4995788;28;95211;-77
2022/11/02 00:05:33;;;;;;;5.32;1.85;;;14.50;99.90;;;;;;4997437;28;92967;-77
2022/11/02 00:08:00;;;;;;;4.00;1.48;;;14.60;99.90;;;;;;5012307;28;103519;-77
2022/11/02 00:10:28;;;;;;;10.73;1.75;;;14.60;99.90;;;;;;4997076;28;93220;-77
2022/11/02 00:12:56;;;;;;;7.75;2.22;;;14.60;99.90;;;;;;4995875;28;95673;-77
2022/11/02 00:15:25;;;;;;;8.57;1.67;;;14.60;99.90;;;;;;4997150;28;92449;-77
2022/11/02 00:18:00;;;;;;;6.72;2.00;;;14.60;99.90;;;;;;4995359;28;92339;-77
2022/11/02 00:20:28;;;;;;;7.72;1.90;;;14.60;99.90;;;;;;5012096;28;94910;-77
2022/11/02 00:22:58;;;;;;;6.95;1.67;;;14.60;99.90;;;;;;4996906;28;93222;-77
2022/11/02 00:25:27;;;;;;;7.75;1.65;;;14.60;99.90;;;;;;5011271;28;95072;-77
2022/11/02 00:27:54;;;;;;;5.45;1.88;;;14.60;99.90;;;;;;4997064;28;92412;-77
2022/11/02 00:30:21;;;;;;;3.90;1.27;;;14.60;99.90;;;;;;5012250;28;95772;-77
2022/11/02 00:32:49;;;;;;;6.85;1.40;;;14.60;99.90;;;;;;4995278;28;95682;-77
2022/11/02 00:35:16;;;;;;;7.55;1.67;;;14.60;99.90;;;;;;4995594;28;92423;-77
2022/11/02 00:37:43;;;;;;;7.10;1.63;;;14.60;99.90;;;;;;4996854;28;92486;-77
2022/11/02 00:40:11;;;;;;;6.53;1.50;;;14.50;99.90;;;;;;4994690;28;96319;-77
2022/11/02 00:42:38;;;;;;;7.72;1.92;;;14.50;99.90;;;;;;4995376;28;95473;-77
2022/11/02 00:45:06;;;;;;;5.15;1.70;;;14.50;99.90;;;;;;4978915;28;92367;-77
2022/11/02 00:47:33;;;;;;;8.70;1.80;;;14.50;99.90;;;;;;4995241;28;92382;-77
2022/11/02 00:50:00;;;;;;;8.02;1.60;;;14.50;99.90;;;;;;5010466;28;98179;-77
2022/11/02 00:52:28;;;;;;;10.25;1.98;;;14.40;99.90;;;;;;4994831;28;97634;-77
2022/11/02 00:54:55;;;;;;;7.65;1.85;;;14.40;99.90;;;;;;5011735;28;92383;-77
2022/11/02 00:57:22;;;;;;;7.03;1.50;;;14.50;99.90;;;;;;5011935;28;92648;-77
2022/11/02 00:59:50;;;;;;;7.03;1.50;;;14.40;99.90;;;;;;5011630;28;95444;-77
2022/11/02 01:02:17;;;;;;;4.25;1.50;;;14.40;99.90;;;;;;4996421;28;92780;-77
2022/11/02 01:04:44;;;;;;;9.10;1.98;;;14.30;99.90;;;;;;4995029;28;92526;-77
2022/11/02 01:07:10;;;;;;;7.53;2.15;;;14.40;99.90;;;;;;5012054;28;91703;-77
2022/11/02 01:09:37;;;;;;;5.65;1.73;;;14.30;99.90;;;;;;5011278;28;99063;-77
2022/11/02 01:12:05;;;;;;;4.93;2.42;;;14.30;99.90;;;;;;4994899;28;95549;-77
2022/11/02 01:14:32;;;;;;;8.93;1.90;;;14.30;99.90;;;;;;4995161;28;94854;-77
2022/11/02 01:16:59;;;;;;;11.02;2.15;;;14.30;99.90;;;;;;4996255;28;92433;-77
2022/11/02 01:19:26;;;;;;;9.43;1.95;;;14.20;99.90;;;;;;4994843;28;95108;-77
2022/11/02 01:21:53;;;;;;;15.02;2.83;;;14.20;99.90;;;;;;4995891;28;93087;-77
2022/11/02 01:24:20;;;;;;;10.00;2.72;;;14.10;99.90;;;;;;4996370;28;92425;-77
2022/11/02 01:26:51;;;;;;;8.52;2.42;;;14.10;99.90;;;;;;4994639;28;92503;-77
2022/11/02 01:29:18;;;;;;;11.07;2.40;;;14.10;99.90;;;;;;4994315;28;95818;-77
2022/11/02 01:31:45;;;;;;;5.75;2.00;;;14.00;99.90;;;;;;5011423;28;92866;-77
2022/11/02 01:34:12;;;;;;;10.75;2.63;;;14.10;99.90;;;;;;4996044;28;92549;-77
2022/11/02 01:36:40;;;;;;;8.10;2.30;;;14.00;99.90;;;;;;4995732;28;92459;-77
2022/11/02 01:39:07;;;;;;;8.05;2.20;;;14.00;99.90;;;;;;5009091;28;95759;-77
2022/11/02 01:41:34;;;;;;;8.23;2.47;;;14.00;99.90;;;;;;5010989;28;98988;-77
2022/11/02 01:44:02;;;;;;;10.90;2.80;;;14.00;99.90;;;;;;5011039;28;92530;-76
2022/11/02 01:46:42;;;;;;;7.05;2.20;;;14.00;99.90;;;;;;4994553;28;92515;-77
2022/11/02 01:49:20;;;;;;;7.60;2.47;;;14.00;99.90;;;;;;4994306;28;96034;-77
2022/11/02 01:52:06;;;;;;;9.48;2.50;;;14.00;99.90;;;;;;4995580;28;92463;-77
2022/11/02 01:54:40;;;;;;;10.13;3.08;;;14.00;99.90;;;;;;4996156;28;92474;-77
2022/11/02 01:57:09;;;;;;;;;;;13.90;99.90;;;;;;4996411;28;92222;-77
2022/11/02 01:59:44;;;;;;;8.02;2.40;;;13.80;99.90;;;;;;4995244;28;95753;-77
2022/11/02 02:02:18;;;;;;;10.95;2.78;;;13.80;99.90;;;;;;4994258;28;95758;-77
2022/11/02 02:04:50;;;;;;;6.05;1.80;;;13.80;99.90;;;;;;4994646;28;94847;-77
2022/11/02 02:07:17;;;;;;;8.75;2.35;;;13.80;99.90;;;;;;4994538;28;92537;-77
2022/11/02 02:09:44;;;;;;;8.13;2.35;;;13.80;99.90;;;;;;4993876;28;95732;-77
2022/11/02 02:12:14;;;;;;;12.05;2.30;;;13.80;99.90;;;;;;4993925;28;95388;-77
2022/11/02 02:14:42;;;;;;;8.63;2.70;;;13.80;99.90;;;;;;4994115;28;92511;-77
2022/11/02 02:17:41;;;;;;;7.97;2.15;;;13.80;99.90;;;;;;4994021;28;92490;-77
2022/11/02 02:20:42;;;;;;;7.80;2.50;;;13.70;99.90;;;;;;4986449;28;95611;-77
2022/11/02 02:23:46;;;;;;;8.15;2.05;;;13.70;99.90;;;;;;4977954;28;95774;-77
2022/11/02 02:26:38;;;;;;;8.70;1.90;;;13.70;99.90;;;;;;4994005;28;92619;-77
2022/11/02 02:29:21;;;;;;;6.63;2.42;;;13.60;99.90;;;;;;5010464;28;92461;-77
2022/11/02 02:32:01;;;;;;;10.90;2.65;;;13.60;99.90;;;;;;4992204;28;97427;-77
2022/11/02 02:34:38;;;;;;;7.13;1.90;;;13.60;99.90;;;;;;5010316;28;98269;-77
2022/11/02 02:37:20;;;;;;;7.20;1.80;;;13.60;99.90;;;;;;5010317;28;92462;-77
2022/11/02 02:40:07;;;;;;;9.60;3.15;;;13.60;99.90;;;;;;5009875;28;92518;-77
2022/11/02 02:43:09;;;;;;;9.13;1.95;;;13.60;99.90;;;;;;4997046;28;96026;-77
2022/11/02 02:45:46;;;;;;;11.68;2.22;;;13.70;99.90;;;;;;4997132;28;94098;-77
2022/11/02 02:48:22;;;;;;;14.43;2.58;;;13.60;99.90;;;;;;4997453;28;92673;-77
2022/11/02 02:50:50;;;;;;;4.60;1.90;;;13.70;99.90;;;;;;4997502;28;92249;-77
2022/11/02 02:53:27;;;;;;;7.50;2.17;;;13.60;99.90;;;;;;4996966;28;95652;-77
2022/11/02 02:55:59;;;;;;;8.38;2.22;;;13.70;99.90;;;;;;4996631;28;95652;-77
2022/11/02 02:58:35;;;;;;;5.43;1.70;;;13.70;99.90;;;;;;4996116;28;95310;-77
2022/11/02 03:01:04;;;;;;;8.35;1.92;;;13.70;99.90;;;;;;4997053;28;93030;-77
2022/11/02 03:03:34;;;;;;;9.30;2.08;;;13.70;99.90;;;;;;4996883;28;95401;-77
2022/11/02 03:06:14;;;;;;;7.40;2.10;;;13.60;99.90;;;;;;5013277;28;92949;-77
2022/11/02 03:08:54;;;;;;;8.05;1.92;;;13.60;99.90;;;;;;5013593;28;92481;-77
2022/11/02 03:11:23;;;;;;;5.60;1.83;;;13.60;99.90;;;;;;4996919;28;92492;-77
2022/11/02 03:14:05;;;;;;;5.80;2.22;;;13.60;99.90;;;;;;5013208;28;94911;-77
2022/11/02 03:16:51;;;;;;;5.03;1.63;;;13.60;99.90;;;;;;4997031;28;95326;-77
2022/11/02 03:19:33;;;;;;;5.88;1.80;;;13.60;99.90;;;;;;5013679;28;92431;-77
2022/11/02 03:22:07;;;;;;;5.32;1.27;;;13.60;99.90;;;;;;4996566;28;92561;-77
2022/11/02 03:24:47;;;;;;;4.70;1.60;;;13.50;99.90;;;;;;5011920;28;98058;-77
2022/11/02 03:27:40;;;;;;;8.68;2.53;;;13.50;99.90;;;;;;4996199;28;97740;-77
2022/11/02 03:30:38;;;;;;;7.45;1.83;;;13.50;99.90;;;;;;4978970;28;92474;-77
2022/11/02 03:33:07;;;;;;;4.40;1.77;;;13.40;99.90;;;;;;4979646;28;92555;-77
2022/11/02 03:35:45;;;;;;;6.38;1.80;;;13.30;99.90;;;;;;4996354;28;95436;-77
2022/11/02 03:38:35;;;;;;;7.88;1.90;;;13.20;99.90;;;;;;4996074;28;95519;-77
2022/11/02 03:41:03;;;;;;;5.63;1.55;;;13.10;99.90;;;;;;4992276;28;92835;-77
2022/11/02 03:43:34;;;;;;;4.43;1.10;;;13.00;99.90;;;;;;4996737;28;91709;-77
2022/11/02 03:46:05;;;;;;;5.95;1.52;;;12.90;99.90;;;;;;5012853;28;95515;-77
2022/11/02 03:48:45;;;;;;;5.85;1.65;;;12.90;99.90;;;;;;4979934;28;95312;-77
2022/11/02 03:51:17;;;;;;;6.47;1.25;;;12.80;99.90;;;;;;5011720;28;94954;-77
2022/11/02 03:54:16;;;;;;;3.55;1.02;;;12.70;99.90;;;;;;4996133;28;92541;-77
2022/11/02 03:56:47;;;;;;;8.45;1.55;;;12.70;99.90;;;;;;5012529;28;96083;-77
2022/11/02 03:59:14;;;;;;;4.40;1.33;;;12.60;99.90;;;;;;4995704;28;95554;-77
2022/11/02 04:01:49;;;;;;;3.58;0.90;;;12.50;99.90;;;;;;5012883;28;92461;-77
2022/11/02 04:04:18;;;;;;;5.25;1.30;;;12.50;99.90;;;;;;5012660;28;92607;-77
2022/11/02 04:06:47;;;;;;;4.05;1.10;;;12.50;99.90;;;;;;4995709;28;95990;-77
2022/11/02 04:09:16;;;;;;;3.42;1.10;;;12.40;99.90;;;;;;5012754;28;95217;-77
2022/11/02 04:14:38;;;;;;;3.40;1.17;;;12.40;99.90;;;;;;5012621;28;93069;-77
2022/11/02 04:20:04;;;;;;;3.78;1.15;;;12.30;99.90;;;;;;4995472;28;97925;-77
2022/11/02 04:25:18;;;;;;;8.60;1.48;;;12.30;99.90;;;;;;4995446;28;93272;-77
2022/11/02 04:28:12;;;;;;;2.83;1.05;;;12.30;99.90;;;;;;5008971;28;93229;-77
2022/11/02 04:30:44;;;;;;;8.07;2.13;;;12.20;99.90;;;;;;4997086;28;93840;-77
2022/11/02 04:36:06;;;;;;;7.07;1.42;;;12.20;99.90;;;;;;5012344;28;91821;-77
2022/11/02 04:38:40;;;;;;;4.88;1.42;;;12.10;99.90;;;;;;4995440;28;96003;-77
2022/11/02 04:44:12;;;;;;;6.93;1.45;;;12.10;99.90;;;;;;5011027;28;94840;-77
2022/11/02 04:46:40;;;;;;;4.20;1.77;;;12.10;99.90;;;;;;5012081;28;92501;-77
2022/11/02 04:49:10;;;;;;;6.30;1.30;;;12.20;99.90;;;;;;5011587;28;95756;-77
2022/11/02 04:51:39;;;;;;;3.53;1.33;;;12.30;99.90;;;;;;4995118;28;94298;-77
2022/11/02 04:54:08;;;;;;;4.82;1.27;;;12.30;99.90;;;;;;4994967;28;92413;-77
2022/11/02 04:56:37;;;;;;;5.95;1.65;;;12.30;99.90;;;;;;5011901;28;92746;-77
2022/11/02 04:59:05;;;;;;;5.47;1.40;;;12.30;99.90;;;;;;4994749;28;95512;-77
2022/11/02 05:01:34;;;;;;;8.63;1.90;;;12.30;99.90;;;;;;4995472;28;95549;-77
2022/11/02 05:04:03;;;;;;;7.82;1.85;;;12.30;99.90;;;;;;4994583;28;92438;-77
2022/11/02 05:06:32;;;;;;;6.20;1.40;;;12.30;99.90;;;;;;4995170;28;92479;-77
2022/11/02 05:08:59;;;;;;;9.02;1.58;;;12.30;99.90;;;;;;4993638;28;98112;-77
2022/11/02 05:11:27;;;;;;;4.13;1.38;;;12.40;99.90;;;;;;4994706;28;96719;-77
2022/11/02 05:13:55;;;;;;;8.23;1.63;;;12.50;99.90;;;;;;4995245;28;92593;-77
2022/11/02 05:16:22;;;;;;;8.45;2.00;;;12.50;99.90;;;;;;5011291;28;92473;-77
2022/11/02 05:18:51;;;;;;;7.25;1.85;;;12.50;99.90;;;;;;4994904;28;92572;-77
2022/11/02 05:21:19;;;;;;;5.97;1.67;;;12.60;99.90;;;;;;4994569;28;95829;-77
2022/11/02 05:23:48;;;;;;;9.13;1.75;;;12.60;99.90;;;;;;5011439;28;92479;-77
2022/11/02 05:26:15;;;;;;;7.38;2.25;;;12.70;99.90;;;;;;4994947;28;91784;-77
2022/11/02 05:28:45;;;;;;;7.13;2.20;;;12.80;99.90;;;;;;5011326;28;95709;-77
2022/11/02 05:31:12;;;;;;;6.72;1.90;;;12.80;99.90;;;;;;5010927;28;95544;-77
2022/11/02 05:33:39;;;;;;;5.28;1.65;;;12.90;99.90;;;;;;4993393;28;94816;-77
2022/11/02 05:36:11;;;;;;;9.23;1.95;;;13.00;99.90;;;;;;4994393;28;92543;-77
2022/11/02 05:38:42;;;;;;;7.70;2.72;;;13.00;99.90;;;;;;5011105;28;95130;-77
2022/11/02 05:41:09;;;;;;;6.20;1.85;;;13.00;99.90;;;;;;5010978;28;95483;-77
2022/11/02 05:43:38;;;;;;;9.50;1.90;;;13.10;99.90;;;;;;4994612;28;93106;-76
2022/11/02 05:46:07;;;;;;;8.82;2.53;;;13.10;99.90;;;;;;5010891;28;92613;-77
2022/11/02 05:48:34;;;;;;;6.80;1.83;;;13.10;99.90;;;;;;4994189;28;96246;-77
2022/11/02 05:51:03;;;;;;;4.03;1.33;;;13.10;99.90;;;;;;5011515;28;91862;-77
2022/11/02 05:53:32;;;;;;;6.32;2.08;;;13.10;99.90;;;;;;4995680;28;92824;-77
2022/11/02 05:56:00;;;;;;;8.18;2.35;;;13.10;99.90;;;;;;4994472;28;92547;-76
2022/11/02 05:58:28;;;;;;;7.40;2.17;;;13.00;99.90;;;;;;4993981;28;95828;-77
2022/11/02 06:00:59;;;;;;;6.93;2.20;;;13.00;99.90;;;;;;4994184;28;95443;-77
2022/11/02 06:03:26;;;;;;;5.85;1.83;;;13.00;99.90;;;;;;5011064;28;93312;-76
2022/11/02 06:05:58;;;;;;;6.05;2.00;;;12.90;99.90;;;;;;4994517;28;92406;-77
2022/11/02 06:08:25;;;;;;;7.20;2.10;;;12.90;99.90;;;;;;5010625;28;93325;-77
2022/11/02 06:10:53;;;;;;;8.20;2.03;;;12.80;99.90;;;;;;5010841;28;93044;-77
2022/11/02 06:13:20;;;;;;;8.98;2.00;;;12.80;99.90;;;;;;5010370;28;94126;-77
2022/11/02 06:15:47;;;;;;;5.90;1.58;;;12.70;99.90;;;;;;4996307;28;92127;-77
2022/11/02 06:18:13;;;;;;;5.88;1.75;;;12.60;99.90;;;;;;4997316;28;94904;-77
2022/11/02 06:20:40;;;;;;;7.70;2.25;;;12.60;99.90;;;;;;4997528;28;95581;-77
2022/11/02 06:23:07;;;;;;;11.55;2.28;;;12.60;99.90;;;;;;4997800;28;94823;-77
2022/11/02 06:25:34;;;;;;;8.32;1.95;;;12.60;99.90;;;;;;5014256;28;92920;-77
2022/11/02 06:28:01;;;;;;;7.05;2.47;;;12.60;99.90;;;;;;5014105;28;92968;-77
2022/11/02 06:30:30;;;;;;;9.02;2.97;;;12.60;99.90;;;;;;4997036;28;94317;-77
2022/11/02 06:32:57;;;;;;;8.95;2.40;;;12.60;99.90;;;;;;4997586;28;92888;-77
2022/11/02 06:35:27;;;;;;;8.40;2.35;;;12.50;99.90;;;;;;4998619;28;92484;-77
2022/11/02 06:37:54;;;;;;;9.73;2.35;;;12.50;99.90;;;;;;5014228;28;93001;-77
2022/11/02 06:40:21;;;;;;;9.25;3.13;;;12.40;99.90;;;;;;5013000;28;95532;-77
2022/11/02 06:42:55;;;;;;;9.13;2.30;;;12.40;99.90;;;;;;4997389;28;92436;-77
2022/11/02 06:45:41;;;;;;;7.10;2.47;;;12.40;99.90;;;;;;4998051;28;92949;-77
2022/11/02 06:48:08;;;;;;;10.07;2.78;;;12.30;99.90;;;;;;4997348;28;95692;-77
2022/11/02 06:50:35;;;;;;;10.13;2.38;;;12.40;99.90;;;;;;4996577;28;103587;-77
2022/11/02 06:53:02;;;;;;;10.65;2.47;;;12.50;99.90;;;;;;4998553;28;92465;-77
2022/11/02 06:55:29;;;;;;;9.32;2.33;;;12.50;99.90;;;;;;4998481;28;93209;-77
2022/11/02 06:57:56;;;;;;;9.13;2.45;;;12.50;99.90;;;;;;4996765;28;95799;-77
2022/11/02 07:00:23;;;;;;;5.15;1.95;;;12.50;99.90;;;;;;5013521;28;92871;-77
2022/11/02 07:03:05;;;;;;;8.82;2.28;;;12.50;99.90;;;;;;5013834;28;92408;-77
2022/11/02 07:05:33;;;;;;;8.48;2.30;;;12.50;99.90;;;;;;4998497;28;91984;-77
2022/11/02 07:08:00;;;;;;;10.73;3.22;;;12.50;99.90;;;;;;4996597;28;96270;-77
2022/11/02 07:10:27;;;;;;;7.78;2.90;;;12.60;99.90;;;;;;4997988;28;93384;-77
2022/11/02 07:12:55;;;;;;;4.90;2.15;;;12.70;99.90;;;;;;4995576;28;100266;-77
2022/11/02 07:15:24;;;;;;;10.27;2.45;;;12.80;99.90;;;;;;4997964;28;92361;-77
2022/11/02 07:17:51;;;;;;;9.55;2.70;;;12.90;99.90;;;;;;5013072;28;95859;-77
2022/11/02 07:20:19;;;;;;;8.30;3.00;;;13.00;99.90;;;;;;5013133;28;93050;-77
2022/11/02 07:22:59;;;;;;;10.27;2.35;;;13.10;99.90;;;;;;4998195;28;92483;-77
2022/11/02 07:25:29;;;;;;;11.95;2.72;;;13.30;99.90;;;;;;4997948;28;92419;-77
2022/11/02 07:27:58;;;;;;;11.60;2.47;;;13.40;99.90;;;;;;4996357;28;93421;-77
2022/11/02 07:30:30;;;;;;;12.73;2.92;;;13.50;99.90;;;;;;5013065;28;95771;-77
2022/11/02 07:32:57;;;;;;;10.20;2.40;;;13.50;99.90;;;;;;4996770;28;93587;-77
2022/11/02 07:35:24;;;;;;;10.63;2.22;;;13.50;99.90;;;;;;4997343;28;101728;-77
2022/11/02 07:37:58;;;;;;;9.95;2.47;;;13.60;99.90;;;;;;4970080;28;95959;-77
2022/11/02 07:40:27;;;;;;;10.55;2.33;;;13.50;99.90;;;;;;5003298;28;94285;-77
2022/11/02 07:42:54;;;;;;;10.27;2.35;;;13.50;99.90;;;;;;4997738;28;92933;-77
2022/11/02 07:45:30;;;;;;;9.05;2.53;;;13.40;99.90;;;;;;5013051;28;93090;-77
2022/11/02 07:47:57;;;;;;;8.55;2.33;;;13.40;99.90;;;;;;5012756;28;94145;-77
2022/11/02 07:50:25;;;;;;;12.38;3.45;;;13.40;99.90;;;;;;5012979;28;93089;-77
2022/11/02 07:52:54;;;;;;;9.18;1.88;;;13.30;99.90;;;;;;5012834;28;92492;-77
2022/11/02 07:55:25;;;;;;;12.27;3.08;;;13.30;99.90;;;;;;4996292;28;92108;-77
2022/11/02 07:57:57;;;;;;;9.90;2.70;;;13.30;99.90;;;;;;4995731;28;95688;-77
2022/11/02 08:00:26;;;;;;;10.32;2.65;;;13.30;99.90;;;;;;4997589;28;92577;-77
2022/11/02 08:02:55;;;;;;;11.93;2.22;;;13.20;99.90;;;;;;4996348;28;94824;-77
2022/11/02 08:05:22;;;;;;;9.95;2.15;;;13.20;99.90;;;;;;4997517;28;92477;-77
2022/11/02 08:08:00;;;;;;;12.15;2.70;;;13.20;99.90;;;;;;4995621;28;93144;-77
2022/11/02 08:10:28;;;;;;;4.93;2.45;;;13.20;99.90;;;;;;5012368;28;98808;-77
2022/11/02 08:12:58;;;;;;;6.65;2.03;;;13.20;99.90;;;;;;4997691;28;92917;-77
2022/11/02 08:15:25;;;;;;;6.45;1.98;;;13.30;99.90;;;;;;4995931;28;92540;-77
2022/11/02 08:18:20;;;;;;;8.52;2.08;;;13.30;99.90;;;;;;5012315;28;93632;-77
2022/11/02 08:20:47;;;;;;;12.70;2.35;;;13.40;99.90;;;;;;4994883;28;96000;-76
2022/11/02 08:23:16;;;;;;;7.53;1.70;;;13.30;99.90;;;;;;4997279;28;92439;-77
2022/11/02 08:25:44;;;;;;;6.53;1.52;;;13.30;99.90;;;;;;5012195;28;92536;-77
2022/11/02 08:28:17;;;;;;;7.72;1.65;;;13.30;99.90;;;;;;4994364;28;98119;-77
2022/11/02 08:30:44;;;;;;;5.25;1.60;;;13.30;99.90;;;;;;4995593;28;93959;-77
2022/11/02 08:33:14;;;;;;;7.25;1.60;;;13.30;99.90;;;;;;4996861;28;92370;-77
2022/11/02 08:35:42;;;;;;;6.22;1.75;;;13.40;99.90;;;;;;5011991;28;92457;-77
2022/11/02 08:38:10;;;;;;;7.68;1.90;;;13.60;99.90;;;;;;4996418;28;93044;-77
2022/11/02 08:40:37;;;;;;;7.20;1.73;;;13.80;99.90;;;;;;5010980;28;92995;-77
2022/11/02 08:43:06;;;;;;;7.05;2.05;;;14.00;99.90;;;;;;5012164;28;92534;-77
2022/11/02 08:45:35;;;;;;;8.52;2.08;;;14.20;99.90;;;;;;4996925;28;91688;-77
2022/11/02 08:48:22;;;;;;;7.97;2.63;;;14.30;99.90;;;;;;5011867;28;95782;-77
2022/11/02 08:50:49;;;;;;;6.97;2.20;;;14.40;99.90;;;;;;4995273;28;93032;-77
2022/11/02 08:53:16;;;;;;;8.38;1.75;;;14.40;99.90;;;;;;4995721;28;94862;-77
2022/11/02 08:55:43;;;;;;;5.30;1.58;;;14.50;99.90;;;;;;4996238;28;92420;-77
2022/11/02 08:58:10;;;;;;;11.95;2.10;;;14.60;99.90;;;;;;4978553;28;95858;-77
2022/11/02 09:00:37;;;;;;;6.57;2.28;;;14.50;99.90;;;;;;5011457;28;96073;-77
2022/11/02 09:03:07;;;;;;;5.85;1.80;;;14.50;99.90;;;;;;4996655;28;92486;-77
2022/11/02 09:05:36;;;;;;;9.68;2.28;;;14.40;99.90;;;;;;4995462;28;92735;-77
2022/11/02 09:08:06;;;;;;;7.03;2.05;;;14.40;99.90;;;;;;5011478;28;93305;-77
2022/11/02 09:10:35;;;;;;;8.38;2.40;;;14.40;99.90;;;;;;4995263;28;92962;-77
2022/11/02 09:13:05;;;;;;;6.88;2.15;;;14.40;99.90;;;;;;4996480;28;92452;-77
2022/11/02 09:15:34;;;;;;;12.98;2.53;;;14.40;99.90;;;;;;4996573;28;92946;-77
2022/11/02 09:18:01;;;;;;;13.35;2.72;;;14.50;99.90;;;;;;5010030;28;98180;-77
2022/11/02 09:20:29;;;;;;;10.13;2.55;;;14.50;99.90;;;;;;5011411;28;95439;-77
2022/11/02 09:22:56;;;;;;;7.13;1.63;;;14.50;99.90;;;;;;5011485;28;92511;-77
2022/11/02 09:25:23;;;;;;;9.00;1.73;;;14.50;99.90;;;;;;4994960;28;92469;-77
2022/11/02 09:27:54;;;;;;;6.88;2.10;;;14.50;99.90;;;;;;4995744;28;93179;-77
2022/11/02 09:30:22;;;;;;;4.80;1.52;;;14.60;99.90;;;;;;5011241;28;95827;-77
2022/11/02 09:32:57;;;;;;;7.63;1.73;;;14.60;99.90;;;;;;5011074;28;97506;-77
2022/11/02 09:35:25;;;;;;;5.03;1.50;;;14.70;99.90;;;;;;4996565;28;91683;-77
2022/11/02 09:37:52;;;;;;;6.20;1.73;;;14.80;99.90;;;;;;5010514;28;106678;-77
2022/11/02 09:40:22;;;;;;;5.97;1.63;;;15.00;99.90;;;;;;5010650;28;95715;-77
2022/11/02 09:43:09;;;;;;;4.38;1.58;;;15.10;99.90;;;;;;4994537;28;94787;-77
2022/11/02 09:45:51;;;;;;;5.00;1.42;;;15.10;99.90;;;;;;5011402;28;92572;-77
2022/11/02 09:48:26;;;;;;;7.80;1.70;;;15.10;99.90;;;;;;5011063;28;93235;-77
2022/11/02 09:51:00;;;;;;;8.10;1.60;;;15.10;99.90;;;;;;4993856;28;95604;-77
2022/11/02 09:53:48;;;;;;;4.15;1.45;;;15.00;99.90;;;;;;4994420;28;92501;-77
2022/11/02 09:56:18;;;;;;;5.53;2.33;;;15.10;99.90;;;;;;4995566;28;92604;-77
2022/11/02 09:58:52;;;;;;;6.80;1.98;;;15.10;99.90;;;;;;4995532;28;93354;-77
2022/11/02 10:01:46;;;;;;;8.30;1.65;;;15.20;99.90;;;;;;5011232;28;95515;-77
2022/11/02 10:04:25;;;;;;;5.53;1.50;;;15.40;99.90;;;;;;4995955;28;92484;-77
2022/11/02 10:07:01;;;;;;;7.28;1.40;;;15.40;99.90;;;;;;4994408;28;92432;-77
2022/11/02 10:09:38;;;;;;;5.15;1.40;;;15.40;99.90;;;;;;4994449;28;95483;-77
2022/11/02 10:12:13;;;;;;;6.47;1.55;;;15.40;99.90;;;;;;4995552;28;95414;-77
2022/11/02 10:14:58;;;;;;;5.70;1.33;;;15.40;99.90;;;;;;4995657;28;92372;-77
2022/11/02 10:17:28;;;;;;;9.77;2.15;;;15.40;99.90;;;;;;4994548;28;92415;-77
2022/11/02 10:20:01;;;;;;;7.72;1.20;;;15.30;99.90;;;;;;4995218;28;93009;-77
2022/11/02 10:22:38;;;;;;;3.60;1.20;;;15.30;99.90;;;;;;4995628;28;93093;-77
2022/11/02 10:25:06;;;;;;;5.13;1.27;;;15.30;99.90;;;;;;4994307;28;92508;-77
2022/11/02 10:27:38;;;;;;;5.70;1.30;;;15.30;99.90;;;;;;4995529;28;91845;-77
2022/11/02 10:30:12;;;;;;;8.55;1.48;;;15.30;99.90;;;;;;5010549;28;93330;-77
2022/11/02 10:32:41;;;;;;;7.88;1.70;;;15.30;99.90;;;;;;4995289;28;93081;-77
2022/11/02 10:35:27;;;;;;;8.05;2.00;;;15.30;99.90;;;;;;4992662;28;94836;-77
2022/11/02 10:38:48;;;;;;;5.00;1.42;;;15.40;99.90;;;;;;4979458;28;92500;-77
2022/11/02 10:41:32;;;;;;;5.15;2.13;;;15.40;99.90;;;;;;4994873;28;93165;-77
2022/11/02 10:44:05;;;;;;;;;;;15.30;99.90;;;;;;4995460;28;93013;-77
2022/11/02 10:46:59;;;;;;;7.75;1.50;;;15.20;99.90;;;;;;5011900;28;92487;-77
2022/11/02 10:49:44;;;;;;;5.68;1.42;;;15.20;99.90;;;;;;4994111;28;92461;-77
2022/11/02 10:52:14;;;;;;;5.80;1.50;;;15.30;99.90;;;;;;4993557;28;92489;-77
2022/11/02 10:54:41;;;;;;;4.97;1.48;;;15.20;99.90;;;;;;4993871;28;95503;-77
2022/11/02 10:57:12;;;;;;;7.13;1.83;;;15.20;99.90;;;;;;4994900;28;92585;-77
2022/11/02 10:59:40;;;;;;;4.70;1.38;;;15.20;99.90;;;;;;4993622;28;92902;-77
2022/11/02 11:02:13;;;;;;;5.45;1.65;;;15.20;99.90;;;;;;4992301;28;109595;-77
2022/11/02 11:04:41;;;;;;;;;;;15.10;99.90;;;;;;5014244;28;95369;-77
2022/11/02 11:07:21;;;;;;;7.88;1.60;;;15.00;99.90;;;;;;4999252;28;92472;-77
2022/11/02 11:09:55;;;;;;;7.30;1.75;;;14.90;99.90;;;;;;4998549;28;92741;-77
2022/11/02 11:12:31;;;;;;;3.95;1.45;;;14.90;99.90;;;;;;5013247;28;95938;-77
2022/11/02 11:15:01;;;;;;;8.52;1.73;;;15.00;99.90;;;;;;4996730;28;95836;-77
2022/11/02 11:17:49;;;;;;;7.93;1.70;;;15.00;99.90;;;;;;4996687;28;92571;-77
2022/11/02 11:20:38;;;;;;;5.57;1.80;;;15.10;99.90;;;;;;4998718;28;92108;-77
2022/11/02 11:23:14;;;;;;;8.43;1.73;;;15.20;99.90;;;;;;4997712;28;93318;-77
2022/11/02 11:25:41;;;;;;;5.93;1.70;;;15.40;99.90;;;;;;4997877;28;94246;-77
2022/11/02 11:28:24;;;;;;;9.77;1.63;;;15.50;99.90;;;;;;4995765;28;95330;-77
2022/11/02 11:31:08;;;;;;;8.60;1.52;;;15.80;99.90;;;;;;4996632;28;92490;-77
2022/11/02 11:33:49;;;;;;;8.45;1.67;;;16.10;99.90;;;;;;4998011;28;93302;-77
2022/11/02 11:36:35;;;;;;;5.38;1.52;;;16.40;99.90;;;;;;4997509;28;93085;-77
2022/11/02 11:39:06;;;;;;;5.97;1.38;;;16.50;99.40;;;;;;5013027;28;92378;-77
2022/11/02 11:41:39;;;;;;;8.98;1.73;;;16.40;99.00;;;;;;4997678;28;92488;-77
2022/11/02 11:44:12;;;;;;;7.37;1.40;;;16.20;98.40;;;;;;4996105;28;94696;-77
2022/11/02 11:46:42;;;;;;;6.15;2.03;;;16.10;97.80;;;;;;4996648;28;96151;-77
2022/11/02 11:49:20;;;;;;;5.78;1.58;;;16.10;98.30;;;;;;5012996;28;92502;-77
2022/11/02 11:51:58;;;;;;;5.40;1.50;;;16.20;98.60;;;;;;4997720;28;92460;-77
2022/11/02 11:54:30;;;;;;;5.68;1.08;;;16.20;97.90;;;;;;4995734;28;107508;-77
2022/11/02 11:57:15;;;;;;;4.53;0.95;;;16.30;97.80;;;;;;4995596;28;98162;-77
2022/11/02 11:59:42;;;;;;;5.47;1.52;;;16.40;97.90;;;;;;4997832;28;92475;-77
2022/11/02 12:02:24;;;;;;;4.63;1.30;;;16.50;97.90;;;;;;5012625;28;92996;-77
2022/11/02 12:04:57;;;;;;;5.60;1.88;;;16.50;97.80;;;;;;4997540;28;93263;-77
2022/11/02 12:07:51;;;;;;;4.43;1.40;;;16.60;97.90;;;;;;5012677;28;93044;-77
2022/11/02 12:10:37;;;;;;;7.20;1.67;;;16.70;97.30;;;;;;5012553;28;92854;-78
2022/11/02 12:13:32;;;;;;;6.80;1.60;;;16.70;97.30;;;;;;4997789;28;91666;-77
2022/11/02 12:16:16;;;;;;;5.93;1.27;;;16.80;97.00;;;;;;5011754;28;96146;-77
2022/11/02 12:19:18;;;;;;;5.90;1.58;;;16.80;96.40;;;;;;4997350;28;93023;-77
2022/11/02 12:21:59;;;;;;;4.45;1.92;;;16.70;96.20;;;;;;4994829;28;94969;-77
2022/11/02 12:24:43;;;;;;;4.55;1.48;;;16.60;96.20;;;;;;4995813;28;92530;-77
2022/11/02 12:27:29;;;;;;;3.47;0.82;;;16.60;96.50;;;;;;4997006;28;93410;-77
2022/11/02 12:30:14;;;;;;;5.15;1.30;;;16.50;96.10;;;;;;4997196;28;93237;-77
2022/11/02 12:32:52;;;;;;;5.90;1.63;;;16.50;96.60;;;;;;5011997;28;92487;-77
2022/11/02 12:35:44;;;;;;;7.35;1.50;;;16.40;96.80;;;;;;5012111;28;92383;-77
2022/11/02 12:38:23;;;;;;;7.25;1.20;;;16.40;96.70;;;;;;5011852;28;95744;-77
2022/11/02 12:40:59;;;;;;;5.85;1.73;;;16.10;96.80;;;;;;4995674;28;93077;-77
2022/11/02 12:43:38;;;;;;;4.47;1.38;;;16.00;96.80;;;;;;4995111;28;92496;-77
2022/11/02 12:46:27;;;;;;;5.15;1.27;;;16.00;97.20;;;;;;4995589;28;92513;-77
2022/11/02 12:49:04;;;;;;;6.95;1.50;;;16.00;97.60;;;;;;4994155;28;95629;-77
2022/11/02 12:52:01;;;;;;;6.18;1.77;;;15.90;97.30;;;;;;4995089;28;98077;-77
2022/11/02 12:54:38;;;;;;;7.32;1.73;;;15.90;97.40;;;;;;4996727;28;92508;-77
2022/11/02 12:57:13;;;;;;;9.25;1.90;;;15.90;97.60;;;;;;4995163;28;92485;-77
2022/11/02 12:59:42;;;;;;;6.95;1.33;;;15.80;97.50;;;;;;4996205;28;93346;-77
2022/11/02 13:02:23;;;;;;;5.97;1.55;;;15.70;97.60;;;;;;4977960;28;105560;-77
2022/11/02 13:05:10;;;;;;;5.05;1.35;;;15.60;97.80;;;;;;5011941;28;93357;-77
2022/11/02 13:07:40;;;;;;;8.10;1.40;;;15.60;97.80;;;;;;4995442;28;91678;-77
2022/11/02 13:10:20;;;;;;;3.60;1.20;;;15.40;98.10;;;;;;4994540;28;95979;-78
2022/11/02 13:12:52;;;;;;;4.47;1.38;;;15.40;98.30;;;;;;4996403;28;93044;-77
2022/11/02 13:15:22;;;;;;;6.85;1.35;;;15.30;98.50;;;;;;5010424;28;94901;-78
2022/11/02 13:17:58;;;;;;;8.23;1.10;;;15.20;98.70;;;;;;4994840;28;92460;-77
2022/11/02 13:20:27;;;;;;;5.57;1.42;;;15.30;98.80;;;;;;5010867;28;94463;-77
2022/11/02 13:23:02;;;;;;;6.50;1.80;;;15.40;99.00;;;;;;4996183;28;93032;-78
2022/11/02 13:25:37;;;;;;;7.63;1.38;;;15.40;98.60;;;;;;5010773;28;93009;-78
2022/11/02 13:28:18;;;;;;;6.20;1.58;;;15.60;98.80;;;;;;4995049;28;92880;-78
2022/11/02 13:30:46;;;;;;;6.13;1.50;;;15.80;98.60;;;;;;5011242;28;93388;-77